Amarillo (AMA/KAMA)

Map

Destinations

Information

Location
Amarillo, TX
Local Time
20:47 / 8:47 pm
GMT Time
02:47 / 2:47 am
Gates
Unassigned
No FAA reported delays
METAR KAMA 170153Z 33012KT 10SM OVC017 03/01 A3009 RMK AO2 SLP195 T00330006
TAF KAMA 162322Z 1700/1724 32011KT P6SM OVC020 FM170800 32009KT P6SM SCT035 BKN060 FM171300 32006KT P6SM SCT060 SCT200
  • No charts available